Time;durP1;ratioP1;P1;durP2;ratioP2;P2;SDS_P1;SDS_P2;PMS_P1;PMS_P2;Temp;Humidity;BMP_temperature;BMP_pressure;BME280_temperature;BME280_humidity;BME280_pressure;Samples;Min_cycle;Max_cycle;Signal;HPM_P1;HPM_P2
2022/07/12 00:01:35;;;;;;;12.30;3.60;;;;;;;;;;5013857;28;20899;-52
2022/07/12 00:04:01;;;;;;;3.40;3.20;;;;;;;;;;5013833;28;20457;-53
2022/07/12 00:06:27;;;;;;;4.00;3.40;;;;;;;;;;5013846;28;20954;-52
2022/07/12 00:08:53;;;;;;;3.53;3.20;;;;;;;;;;5013830;28;20403;-54
2022/07/12 00:11:19;;;;;;;7.70;3.90;;;;;;;;;;5013465;28;20465;-53
2022/07/12 00:13:44;;;;;;;4.87;3.80;;;;;;;;;;5013872;28;20567;-52
2022/07/12 00:16:11;;;;;;;8.03;3.77;;;;;;;;;;5013779;28;20911;-52
2022/07/12 00:18:37;;;;;;;3.63;3.33;;;;;;;;;;5013528;28;20777;-53
2022/07/12 00:21:03;;;;;;;7.03;3.60;;;;;;;;;;5013406;28;20847;-53
2022/07/12 00:23:29;;;;;;;4.60;3.60;;;;;;;;;;5013615;28;20444;-52
2022/07/12 00:25:55;;;;;;;5.90;3.50;;;;;;;;;;5013453;28;20494;-52
2022/07/12 00:28:21;;;;;;;3.30;3.10;;;;;;;;;;5013482;28;20423;-52
2022/07/12 00:30:46;;;;;;;3.30;3.10;;;;;;;;;;5013296;28;20470;-53
2022/07/12 00:33:12;;;;;;;5.57;2.97;;;;;;;;;;5013324;28;20374;-53
2022/07/12 00:35:38;;;;;;;10.37;3.87;;;;;;;;;;5013308;28;20472;-54
2022/07/12 00:38:04;;;;;;;3.83;3.10;;;;;;;;;;5013273;28;20433;-52
2022/07/12 00:40:30;;;;;;;3.03;2.83;;;;;;;;;;5012990;28;20473;-53
2022/07/12 00:42:56;;;;;;;3.23;3.03;;;;;;;;;;5013239;28;20411;-52
2022/07/12 00:45:22;;;;;;;3.20;2.90;;;;;;;;;;5012297;28;20414;-52
2022/07/12 00:47:50;;;;;;;5.50;3.07;;;;;;;;;;5013038;28;20437;-53
2022/07/12 00:50:17;;;;;;;2.90;2.70;;;;;;;;;;5012834;28;20378;-52
2022/07/12 00:52:44;;;;;;;4.60;3.30;;;;;;;;;;5013098;28;20452;-52
2022/07/12 00:55:10;;;;;;;10.23;3.27;;;;;;;;;;5012957;28;20477;-53
2022/07/12 00:57:37;;;;;;;3.40;3.10;;;;;;;;;;5012922;28;20433;-53
2022/07/12 01:00:05;;;;;;;19.37;4.13;;;;;;;;;;5012838;28;20454;-52
2022/07/12 01:02:31;;;;;;;10.20;2.90;;;;;;;;;;5012154;28;20378;-52
2022/07/12 01:04:58;;;;;;;12.10;3.37;;;;;;;;;;5012454;28;20458;-51
2022/07/12 01:07:26;;;;;;;8.20;3.30;;;;;;;;;;5012437;28;20858;-53
2022/07/12 01:09:52;;;;;;;11.77;3.90;;;;;;;;;;5012757;28;20871;-52
2022/07/12 01:12:19;;;;;;;8.13;3.10;;;;;;;;;;5012486;28;20374;-52
2022/07/12 01:14:45;;;;;;;3.87;3.47;;;;;;;;;;5012646;28;20406;-53
2022/07/12 01:17:13;;;;;;;3.70;3.40;;;;;;;;;;5012883;28;20419;-51
2022/07/12 01:19:39;;;;;;;5.13;3.50;;;;;;;;;;5013346;28;20443;-55
2022/07/12 01:22:09;;;;;;;3.60;3.30;;;;;;;;;;5012620;28;20398;-55
2022/07/12 01:24:35;;;;;;;3.30;3.10;;;;;;;;;;5012554;28;20419;-55
2022/07/12 01:27:02;;;;;;;3.10;2.90;;;;;;;;;;5012580;28;20520;-55
2022/07/12 01:29:28;;;;;;;3.50;3.30;;;;;;;;;;5012460;28;20385;-55
2022/07/12 01:31:54;;;;;;;3.50;3.20;;;;;;;;;;5012308;28;20395;-55
2022/07/12 01:34:21;;;;;;;3.83;3.47;;;;;;;;;;5012388;28;20861;-55
2022/07/12 01:36:47;;;;;;;3.17;2.90;;;;;;;;;;5012413;28;20407;-55
2022/07/12 01:39:13;;;;;;;2.97;2.73;;;;;;;;;;5012173;28;20501;-55
2022/07/12 01:41:40;;;;;;;3.13;2.67;;;;;;;;;;5012124;28;20438;-55
2022/07/12 01:44:07;;;;;;;3.20;3.00;;;;;;;;;;5012584;28;20386;-56
2022/07/12 01:46:32;;;;;;;3.33;3.03;;;;;;;;;;5012471;28;20461;-55
2022/07/12 01:48:58;;;;;;;3.37;3.07;;;;;;;;;;5012204;28;20818;-55
2022/07/12 01:51:24;;;;;;;3.10;2.90;;;;;;;;;;5011996;28;20422;-55
2022/07/12 01:53:50;;;;;;;3.63;3.33;;;;;;;;;;5012143;28;20406;-55
2022/07/12 01:56:17;;;;;;;4.00;3.70;;;;;;;;;;5011853;28;20409;-52
2022/07/12 01:58:43;;;;;;;3.97;3.50;;;;;;;;;;5012016;28;20400;-58
2022/07/12 02:01:10;;;;;;;3.57;3.27;;;;;;;;;;5011894;28;20807;-55
2022/07/12 02:03:37;;;;;;;5.10;4.57;;;;;;;;;;5012109;28;20408;-55
2022/07/12 02:06:03;;;;;;;6.00;3.70;;;;;;;;;;5012305;28;20431;-55
2022/07/12 02:08:29;;;;;;;3.87;3.57;;;;;;;;;;5011917;28;20411;-55
2022/07/12 02:10:55;;;;;;;4.07;3.57;;;;;;;;;;5011744;28;20438;-56
2022/07/12 02:13:21;;;;;;;5.93;4.00;;;;;;;;;;5012019;28;20372;-56
2022/07/12 02:15:47;;;;;;;4.20;3.90;;;;;;;;;;5013046;28;20735;-56
2022/07/12 02:18:13;;;;;;;5.10;4.50;;;;;;;;;;5013116;28;20414;-55
2022/07/12 02:20:39;;;;;;;4.70;4.30;;;;;;;;;;5012216;28;20425;-55
2022/07/12 02:23:05;;;;;;;5.03;4.60;;;;;;;;;;5012538;28;20401;-55
2022/07/12 02:25:31;;;;;;;4.50;4.10;;;;;;;;;;5013216;28;20433;-55
2022/07/12 02:27:57;;;;;;;6.27;4.30;;;;;;;;;;5012481;28;20974;-55
2022/07/12 02:30:23;;;;;;;4.10;3.80;;;;;;;;;;5012282;28;20435;-55
2022/07/12 02:32:49;;;;;;;4.87;4.47;;;;;;;;;;5012934;28;20930;-55
2022/07/12 02:35:15;;;;;;;4.50;4.20;;;;;;;;;;5012542;28;20418;-55
2022/07/12 02:37:41;;;;;;;6.03;4.23;;;;;;;;;;5012183;28;20875;-55
2022/07/12 02:43:06;;;;;;;4.47;4.17;;;;;;;;;;5000077;28;20400;-55
2022/07/12 02:45:32;;;;;;;8.17;4.07;;;;;;;;;;5012388;28;20400;-55
2022/07/12 02:47:58;;;;;;;4.57;4.10;;;;;;;;;;5012390;28;20473;-55
2022/07/12 02:50:24;;;;;;;4.43;4.03;;;;;;;;;;5011368;28;20413;-54
2022/07/12 02:52:50;;;;;;;5.33;4.43;;;;;;;;;;5011492;28;20401;-55
2022/07/12 02:55:16;;;;;;;4.00;3.70;;;;;;;;;;5012010;28;20398;-56
2022/07/12 02:57:42;;;;;;;5.43;4.60;;;;;;;;;;5011987;28;20406;-56
2022/07/12 03:00:08;;;;;;;4.40;4.00;;;;;;;;;;5012351;28;20411;-56
2022/07/12 03:02:34;;;;;;;4.10;3.70;;;;;;;;;;5012183;28;20464;-56
2022/07/12 03:05:00;;;;;;;4.27;3.97;;;;;;;;;;5011833;28;20470;-55
2022/07/12 03:07:26;;;;;;;7.87;4.20;;;;;;;;;;5011428;28;20489;-55
2022/07/12 03:09:52;;;;;;;4.60;4.30;;;;;;;;;;5014613;28;20436;-55
2022/07/12 03:12:18;;;;;;;7.50;3.93;;;;;;;;;;5015983;28;20409;-55
2022/07/12 03:14:44;;;;;;;5.20;3.60;;;;;;;;;;5016011;28;20719;-55
2022/07/12 03:17:10;;;;;;;4.57;4.07;;;;;;;;;;5016055;28;20430;-55
2022/07/12 03:19:36;;;;;;;3.70;3.40;;;;;;;;;;5015681;28;20389;-56
2022/07/12 03:22:02;;;;;;;7.10;4.07;;;;;;;;;;5016096;28;20402;-56
2022/07/12 03:24:28;;;;;;;4.03;3.20;;;;;;;;;;5015737;28;20494;-56
2022/07/12 03:26:54;;;;;;;4.50;3.60;;;;;;;;;;5015177;28;20562;-56
2022/07/12 03:29:20;;;;;;;7.67;3.40;;;;;;;;;;5015447;28;20413;-56
2022/07/12 03:31:46;;;;;;;3.93;3.63;;;;;;;;;;5015261;28;20392;-56
2022/07/12 03:34:12;;;;;;;4.90;3.90;;;;;;;;;;5015255;28;20395;-56
2022/07/12 03:36:38;;;;;;;6.80;3.37;;;;;;;;;;5015029;28;20557;-56
2022/07/12 03:39:04;;;;;;;4.77;3.80;;;;;;;;;;5015088;28;20450;-55
2022/07/12 03:41:30;;;;;;;4.00;3.70;;;;;;;;;;5014455;28;20415;-55
2022/07/12 03:43:56;;;;;;;4.90;3.53;;;;;;;;;;5014830;28;20403;-55
2022/07/12 03:46:22;;;;;;;4.10;3.80;;;;;;;;;;5014713;28;20449;-56
2022/07/12 03:48:48;;;;;;;4.10;3.63;;;;;;;;;;5014586;28;20794;-56
2022/07/12 03:51:14;;;;;;;5.50;4.13;;;;;;;;;;5014309;28;20762;-56
2022/07/12 03:53:40;;;;;;;5.53;4.97;;;;;;;;;;5014589;28;20407;-56
2022/07/12 03:56:06;;;;;;;4.57;4.20;;;;;;;;;;5014633;28;20401;-54
2022/07/12 03:58:32;;;;;;;4.97;4.30;;;;;;;;;;5014166;28;20426;-55
2022/07/12 04:00:58;;;;;;;8.60;5.10;;;;;;;;;;5013911;28;20379;-55
2022/07/12 04:03:24;;;;;;;4.97;4.57;;;;;;;;;;5014362;28;20401;-55
2022/07/12 04:05:50;;;;;;;4.90;4.40;;;;;;;;;;5014280;28;20404;-56
2022/07/12 04:08:16;;;;;;;5.50;4.50;;;;;;;;;;5014145;28;20430;-56
2022/07/12 04:10:42;;;;;;;4.77;4.30;;;;;;;;;;5013724;28;20907;-56
2022/07/12 04:13:08;;;;;;;5.20;4.70;;;;;;;;;;5014145;28;20413;-55
2022/07/12 04:15:34;;;;;;;9.43;4.80;;;;;;;;;;5013904;28;20889;-56
2022/07/12 04:18:00;;;;;;;5.40;5.00;;;;;;;;;;5013765;28;20426;-56
2022/07/12 04:20:26;;;;;;;6.13;5.00;;;;;;;;;;5013613;28;20424;-56
2022/07/12 04:22:52;;;;;;;5.43;4.93;;;;;;;;;;5013873;28;20879;-56
2022/07/12 04:25:18;;;;;;;5.47;5.07;;;;;;;;;;5013800;28;20406;-56
2022/07/12 04:27:44;;;;;;;5.97;5.47;;;;;;;;;;5013532;28;20549;-56
2022/07/12 04:30:10;;;;;;;6.03;5.43;;;;;;;;;;5013489;28;20405;-56
2022/07/12 04:32:36;;;;;;;11.77;5.80;;;;;;;;;;5013574;28;20482;-56
2022/07/12 04:35:02;;;;;;;11.27;5.63;;;;;;;;;;5013480;28;20490;-56
2022/07/12 04:37:28;;;;;;;6.83;5.50;;;;;;;;;;5013320;28;20533;-56
2022/07/12 04:39:54;;;;;;;7.93;6.47;;;;;;;;;;5013351;28;20414;-56
2022/07/12 04:42:20;;;;;;;8.10;5.60;;;;;;;;;;5013510;28;20413;-55
2022/07/12 04:44:46;;;;;;;12.07;4.90;;;;;;;;;;5013328;28;20407;-56
2022/07/12 04:47:13;;;;;;;7.83;6.67;;;;;;;;;;5013049;28;20469;-55
2022/07/12 04:49:39;;;;;;;8.13;6.47;;;;;;;;;;5013379;28;20410;-56
2022/07/12 04:52:05;;;;;;;7.60;6.37;;;;;;;;;;5013020;28;20873;-56
2022/07/12 04:54:31;;;;;;;8.10;6.00;;;;;;;;;;5013075;28;20403;-56
2022/07/12 04:56:57;;;;;;;9.90;6.00;;;;;;;;;;5012964;28;20472;-55
2022/07/12 04:59:23;;;;;;;9.97;6.33;;;;;;;;;;5013007;28;20526;-56
2022/07/12 05:01:49;;;;;;;6.03;5.43;;;;;;;;;;5012747;28;20392;-56
2022/07/12 05:04:15;;;;;;;9.03;5.77;;;;;;;;;;5013161;28;20796;-56
2022/07/12 05:06:41;;;;;;;6.80;6.13;;;;;;;;;;5012866;28;20454;-56
2022/07/12 05:09:07;;;;;;;7.20;6.50;;;;;;;;;;5012866;28;20806;-56
2022/07/12 05:11:34;;;;;;;7.97;6.50;;;;;;;;;;5012635;28;20371;-56
2022/07/12 05:14:00;;;;;;;6.23;5.60;;;;;;;;;;5012794;28;20377;-56
2022/07/12 05:16:27;;;;;;;11.23;7.23;;;;;;;;;;5012637;28;20453;-56
2022/07/12 05:18:53;;;;;;;7.27;6.57;;;;;;;;;;5012495;28;20928;-55
2022/07/12 05:21:19;;;;;;;7.60;6.50;;;;;;;;;;5012354;28;20399;-56
2022/07/12 05:23:45;;;;;;;8.10;6.70;;;;;;;;;;5012697;28;20435;-56
2022/07/12 05:26:11;;;;;;;8.07;7.27;;;;;;;;;;5012522;28;21049;-56
2022/07/12 05:28:37;;;;;;;8.57;7.37;;;;;;;;;;5012463;28;20796;-56
2022/07/12 05:31:02;;;;;;;9.03;7.57;;;;;;;;;;5011946;28;20403;-56
2022/07/12 05:33:28;;;;;;;14.00;8.93;;;;;;;;;;5012221;28;20376;-56
2022/07/12 05:35:54;;;;;;;11.93;9.43;;;;;;;;;;5012504;28;20382;-56
2022/07/12 05:38:20;;;;;;;12.37;9.80;;;;;;;;;;5012296;28;20950;-56
2022/07/12 05:40:46;;;;;;;17.50;11.37;;;;;;;;;;5012106;28;20443;-56
2022/07/12 05:43:12;;;;;;;12.73;10.07;;;;;;;;;;5012365;28;20899;-56
2022/07/12 05:45:38;;;;;;;11.97;10.53;;;;;;;;;;5012219;28;20801;-56
2022/07/12 05:48:04;;;;;;;10.90;9.33;;;;;;;;;;5012145;28;20502;-56
2022/07/12 05:50:30;;;;;;;11.10;9.87;;;;;;;;;;5012111;28;20390;-56
2022/07/12 05:55:41;;;;;;;16.83;10.80;;;;;;;;;;5012341;28;20394;-56
2022/07/12 05:58:07;;;;;;;13.70;9.57;;;;;;;;;;5012224;28;20798;-56
2022/07/12 06:00:33;;;;;;;13.80;8.27;;;;;;;;;;5011938;28;20386;-56
2022/07/12 06:02:59;;;;;;;11.47;8.67;;;;;;;;;;5012305;28;20432;-56
2022/07/12 06:05:25;;;;;;;8.70;7.60;;;;;;;;;;5012120;28;20415;-56
2022/07/12 06:07:51;;;;;;;10.27;7.47;;;;;;;;;;5012039;28;20429;-56
2022/07/12 06:10:17;;;;;;;8.20;6.17;;;;;;;;;;5012117;28;20380;-56
2022/07/12 06:12:43;;;;;;;6.90;6.20;;;;;;;;;;5012207;28;20744;-56
2022/07/12 06:15:09;;;;;;;7.40;6.70;;;;;;;;;;5012269;28;20493;-56
2022/07/12 06:17:35;;;;;;;7.77;6.00;;;;;;;;;;5012093;28;20395;-56
2022/07/12 06:20:02;;;;;;;6.37;5.60;;;;;;;;;;5012222;28;20404;-56
2022/07/12 06:22:28;;;;;;;7.63;6.83;;;;;;;;;;5012108;28;20396;-56
2022/07/12 06:24:54;;;;;;;9.30;6.33;;;;;;;;;;5012307;28;20373;-56
2022/07/12 06:27:20;;;;;;;10.00;6.30;;;;;;;;;;5012190;28;20436;-56
2022/07/12 06:29:47;;;;;;;6.20;5.37;;;;;;;;;;5012505;28;20402;-56
2022/07/12 06:32:17;;;;;;;7.17;6.47;;;;;;;;;;5012100;28;20490;-56
2022/07/12 06:34:43;;;;;;;8.03;6.00;;;;;;;;;;5012394;28;20384;-56
2022/07/12 06:37:09;;;;;;;6.37;5.70;;;;;;;;;;5012206;28;20518;-56
2022/07/12 06:39:35;;;;;;;9.50;7.23;;;;;;;;;;5012548;28;20460;-56
2022/07/12 06:42:05;;;;;;;7.73;5.77;;;;;;;;;;5012740;28;20440;-56
2022/07/12 06:44:31;;;;;;;6.83;5.20;;;;;;;;;;5014674;28;20406;-57
2022/07/12 06:46:57;;;;;;;5.83;5.23;;;;;;;;;;5016351;28;20429;-56
2022/07/12 06:49:23;;;;;;;4.93;4.50;;;;;;;;;;5016035;28;20484;-56
2022/07/12 06:51:49;;;;;;;5.47;5.03;;;;;;;;;;5015345;28;20462;-56
2022/07/12 06:54:15;;;;;;;4.40;4.00;;;;;;;;;;5016211;28;20878;-56
2022/07/12 06:56:41;;;;;;;4.63;3.87;;;;;;;;;;5016075;28;20403;-56
2022/07/12 06:59:10;;;;;;;5.17;3.80;;;;;;;;;;5015616;28;20906;-56
2022/07/12 07:01:36;;;;;;;3.70;3.27;;;;;;;;;;5014923;28;20458;-56
2022/07/12 07:04:02;;;;;;;3.43;3.13;;;;;;;;;;5015259;28;20415;-56
2022/07/12 07:06:28;;;;;;;5.93;3.00;;;;;;;;;;5015006;28;20459;-56
2022/07/12 07:08:54;;;;;;;3.17;2.93;;;;;;;;;;5014889;28;20502;-56
2022/07/12 07:11:20;;;;;;;7.83;3.53;;;;;;;;;;5014788;28;20400;-56
2022/07/12 07:13:46;;;;;;;4.67;4.37;;;;;;;;;;5015209;28;20758;-56
2022/07/12 07:16:13;;;;;;;5.57;4.50;;;;;;;;;;5014910;28;20397;-56
2022/07/12 07:18:40;;;;;;;4.10;3.80;;;;;;;;;;5014829;28;20420;-56
2022/07/12 07:21:06;;;;;;;6.33;4.77;;;;;;;;;;5015318;28;20490;-56
2022/07/12 07:23:32;;;;;;;3.70;3.40;;;;;;;;;;5014708;28;20394;-56
2022/07/12 07:25:58;;;;;;;4.50;3.87;;;;;;;;;;5014868;28;20821;-56
2022/07/12 07:28:24;;;;;;;4.73;4.40;;;;;;;;;;5014596;28;20461;-56
2022/07/12 07:30:53;;;;;;;4.90;4.50;;;;;;;;;;5014356;28;20916;-56
2022/07/12 07:33:19;;;;;;;5.07;3.80;;;;;;;;;;5014686;28;20401;-56
2022/07/12 07:35:46;;;;;;;3.50;3.30;;;;;;;;;;5014573;28;20403;-57
2022/07/12 07:38:12;;;;;;;3.20;3.00;;;;;;;;;;5014546;28;20442;-56
2022/07/12 07:40:38;;;;;;;4.27;3.27;;;;;;;;;;5014425;28;20428;-56
2022/07/12 07:43:04;;;;;;;2.67;2.47;;;;;;;;;;5014418;28;20412;-55
2022/07/12 07:45:30;;;;;;;2.37;2.20;;;;;;;;;;5014692;28;20755;-56
2022/07/12 07:47:56;;;;;;;2.67;2.57;;;;;;;;;;5014365;28;20565;-56
2022/07/12 07:50:22;;;;;;;2.43;2.23;;;;;;;;;;5014021;28;20406;-56
2022/07/12 07:52:49;;;;;;;2.80;2.53;;;;;;;;;;5014186;28;20533;-56
2022/07/12 07:55:15;;;;;;;2.83;2.43;;;;;;;;;;5013886;28;20402;-56
2022/07/12 07:57:42;;;;;;;1.83;1.73;;;;;;;;;;5008094;28;20438;-56
2022/07/12 08:00:08;;;;;;;2.40;2.30;;;;;;;;;;5013821;28;20425;-57
2022/07/12 08:02:34;;;;;;;2.77;2.57;;;;;;;;;;5013950;28;20406;-56
2022/07/12 08:05:00;;;;;;;2.80;2.60;;;;;;;;;;5012859;28;20466;-56
2022/07/12 08:07:26;;;;;;;2.67;2.57;;;;;;;;;;5013705;28;20543;-56
2022/07/12 08:09:52;;;;;;;2.73;2.60;;;;;;;;;;5013065;28;20399;-57
2022/07/12 08:12:18;;;;;;;1.90;1.70;;;;;;;;;;5012034;28;20876;-57
2022/07/12 08:14:44;;;;;;;2.40;2.20;;;;;;;;;;5013087;28;20406;-56
2022/07/12 08:17:10;;;;;;;2.50;2.30;;;;;;;;;;5013465;28;20423;-56
2022/07/12 08:19:36;;;;;;;2.40;2.20;;;;;;;;;;5013389;28;20492;-57
2022/07/12 08:22:02;;;;;;;1.73;1.63;;;;;;;;;;5013405;28;20403;-57
2022/07/12 08:24:28;;;;;;;1.67;1.57;;;;;;;;;;5013450;28;20879;-56
2022/07/12 08:26:54;;;;;;;1.43;1.30;;;;;;;;;;5013373;28;20461;-56
2022/07/12 08:29:20;;;;;;;3.20;1.30;;;;;;;;;;5013421;28;20457;-56
2022/07/12 08:31:46;;;;;;;2.13;1.67;;;;;;;;;;5013247;28;20399;-56
2022/07/12 08:34:12;;;;;;;1.77;1.67;;;;;;;;;;5013401;28;20434;-55
2022/07/12 08:36:39;;;;;;;1.73;1.60;;;;;;;;;;5013417;28;20399;-55
2022/07/12 08:39:05;;;;;;;1.70;1.60;;;;;;;;;;5013134;28;20447;-55
2022/07/12 08:41:31;;;;;;;1.30;1.20;;;;;;;;;;5013044;28;20403;-54
2022/07/12 08:43:57;;;;;;;1.00;0.90;;;;;;;;;;5013124;28;20418;-54
2022/07/12 08:46:23;;;;;;;0.80;0.70;;;;;;;;;;5013141;28;20454;-55
2022/07/12 08:48:49;;;;;;;1.10;1.00;;;;;;;;;;5013094;28;20651;-55
2022/07/12 08:51:19;;;;;;;1.27;1.17;;;;;;;;;;5013053;28;21035;-55
2022/07/12 08:53:45;;;;;;;1.50;1.03;;;;;;;;;;5013129;28;20172;-54
2022/07/12 08:56:30;;;;;;;1.83;1.20;;;;;;;;;;5013142;28;20399;-54
2022/07/12 08:59:12;;;;;;;1.27;1.17;;;;;;;;;;5012911;28;20415;-55
2022/07/12 09:01:42;;;;;;;1.30;1.17;;;;;;;;;;5012699;28;20396;-55
2022/07/12 09:04:12;;;;;;;1.20;1.10;;;;;;;;;;5012908;28;20429;-55
2022/07/12 09:06:38;;;;;;;1.10;1.00;;;;;;;;;;5012143;28;21073;-55
2022/07/12 09:09:04;;;;;;;1.00;0.90;;;;;;;;;;5012786;28;20510;-56
2022/07/12 09:11:30;;;;;;;1.00;0.90;;;;;;;;;;5012543;28;20645;-56
2022/07/12 09:13:58;;;;;;;1.23;1.10;;;;;;;;;;5012587;28;20171;-55
2022/07/12 09:16:25;;;;;;;1.20;1.00;;;;;;;;;;5012742;28;20490;-56
2022/07/12 09:18:51;;;;;;;0.80;0.80;;;;;;;;;;5009095;28;20443;-56
2022/07/12 09:21:23;;;;;;;1.10;1.00;;;;;;;;;;5011590;28;20427;-53
2022/07/12 09:23:54;;;;;;;1.00;0.90;;;;;;;;;;5012553;28;20853;-53
2022/07/12 09:26:20;;;;;;;1.23;1.10;;;;;;;;;;5012389;28;20433;-53
2022/07/12 09:28:49;;;;;;;1.00;0.90;;;;;;;;;;5012350;28;20911;-55
2022/07/12 09:31:15;;;;;;;1.40;1.17;;;;;;;;;;5012080;28;20413;-53
2022/07/12 09:36:25;;;;;;;1.20;0.87;;;;;;;;;;5012435;28;20828;-53
2022/07/12 09:38:53;;;;;;;1.00;0.90;;;;;;;;;;5012075;28;20458;-55
2022/07/12 09:41:20;;;;;;;0.90;0.80;;;;;;;;;;5011998;28;20395;-56
2022/07/12 09:43:47;;;;;;;0.80;0.77;;;;;;;;;;5012212;28;20391;-54
2022/07/12 09:46:14;;;;;;;1.20;0.90;;;;;;;;;;5012196;28;20483;-54
2022/07/12 09:48:41;;;;;;;1.40;1.30;;;;;;;;;;5012143;28;20930;-53
2022/07/12 09:51:09;;;;;;;1.60;1.50;;;;;;;;;;5011868;28;20403;-53
2022/07/12 09:53:38;;;;;;;7.37;6.67;;;;;;;;;;5012022;28;20439;-53
2022/07/12 09:56:06;;;;;;;1.00;0.90;;;;;;;;;;5012052;28;20764;-53
2022/07/12 09:58:37;;;;;;;4.10;3.13;;;;;;;;;;5012000;28;20422;-53
2022/07/12 10:01:03;;;;;;;0.90;0.80;;;;;;;;;;5011846;28;20765;-56
2022/07/12 10:03:33;;;;;;;2.70;0.90;;;;;;;;;;5011971;28;20772;-55
2022/07/12 10:06:01;;;;;;;1.13;0.90;;;;;;;;;;5012314;28;20410;-55
2022/07/12 10:08:28;;;;;;;3.40;1.43;;;;;;;;;;5011946;28;20561;-55
2022/07/12 10:10:54;;;;;;;2.40;0.80;;;;;;;;;;5011666;28;20391;-54
2022/07/12 10:13:20;;;;;;;1.03;0.93;;;;;;;;;;5011902;28;20440;-53
2022/07/12 10:15:47;;;;;;;1.00;0.70;;;;;;;;;;5012075;28;20387;-54
2022/07/12 10:18:17;;;;;;;1.03;0.70;;;;;;;;;;5012480;28;20419;-54
2022/07/12 10:20:44;;;;;;;1.00;0.90;;;;;;;;;;5030305;28;20505;-54
2022/07/12 10:23:36;;;;;;;1.10;0.87;;;;;;;;;;5035625;28;20492;-54
2022/07/12 10:26:24;;;;;;;0.93;0.90;;;;;;;;;;5027074;28;20410;-54
2022/07/12 10:29:04;;;;;;;0.80;0.73;;;;;;;;;;5035197;28;20467;-55
2022/07/12 10:31:34;;;;;;;1.00;0.90;;;;;;;;;;5035235;28;20402;-54
2022/07/12 10:34:12;;;;;;;1.10;1.00;;;;;;;;;;5034231;28;20409;-54
2022/07/12 10:36:57;;;;;;;1.20;0.80;;;;;;;;;;5035303;28;20409;-53
2022/07/12 10:39:24;;;;;;;1.37;0.83;;;;;;;;;;5034877;28;20456;-54
2022/07/12 10:42:11;;;;;;;1.10;1.00;;;;;;;;;;5035153;28;20402;-53
2022/07/12 10:44:38;;;;;;;0.80;0.70;;;;;;;;;;5021348;28;20418;-54
2022/07/12 10:47:04;;;;;;;0.80;0.70;;;;;;;;;;5034962;28;20461;-53
2022/07/12 10:49:31;;;;;;;1.10;1.00;;;;;;;;;;5035097;28;20409;-53
2022/07/12 10:52:13;;;;;;;1.00;0.90;;;;;;;;;;5034680;28;20957;-55
2022/07/12 10:54:43;;;;;;;0.80;0.70;;;;;;;;;;5035115;28;20829;-53
2022/07/12 10:57:09;;;;;;;1.80;1.07;;;;;;;;;;5029185;28;21071;-54
2022/07/12 10:59:37;;;;;;;1.33;0.93;;;;;;;;;;4995635;28;20542;-54
2022/07/12 11:02:05;;;;;;;1.10;0.87;;;;;;;;;;4995447;28;20408;-55
2022/07/12 11:04:33;;;;;;;1.20;0.90;;;;;;;;;;4995536;28;20408;-54
2022/07/12 11:07:01;;;;;;;1.90;0.80;;;;;;;;;;4995352;28;20954;-53
2022/07/12 11:09:28;;;;;;;1.27;1.00;;;;;;;;;;4995442;28;20443;-54
2022/07/12 11:11:54;;;;;;;1.60;1.00;;;;;;;;;;4995258;28;20400;-54
2022/07/12 11:14:22;;;;;;;0.80;0.80;;;;;;;;;;4995449;28;20751;-54
2022/07/12 11:16:48;;;;;;;0.90;0.80;;;;;;;;;;4995218;28;20400;-55
2022/07/12 11:19:15;;;;;;;1.03;0.93;;;;;;;;;;4995275;28;20408;-54
2022/07/12 11:21:54;;;;;;;1.87;0.90;;;;;;;;;;4993753;28;20853;-56
2022/07/12 11:24:21;;;;;;;3.63;0.97;;;;;;;;;;4995160;28;20773;-54
2022/07/12 11:26:50;;;;;;;1.80;0.87;;;;;;;;;;4995107;28;20456;-54
2022/07/12 11:29:16;;;;;;;0.90;0.80;;;;;;;;;;4994251;28;20463;-55
2022/07/12 11:31:44;;;;;;;0.80;0.80;;;;;;;;;;4994852;28;20404;-54
2022/07/12 11:34:20;;;;;;;0.80;0.80;;;;;;;;;;4995042;28;20924;-55
2022/07/12 11:36:46;;;;;;;0.90;0.80;;;;;;;;;;4994941;28;20432;-54
2022/07/12 11:39:12;;;;;;;0.93;0.83;;;;;;;;;;4994751;28;20489;-54
2022/07/12 11:41:38;;;;;;;1.83;1.13;;;;;;;;;;4994701;28;20412;-56
2022/07/12 11:44:04;;;;;;;1.10;1.00;;;;;;;;;;4994832;28;20204;-54
2022/07/12 11:46:30;;;;;;;0.80;0.73;;;;;;;;;;4994750;28;20703;-54
2022/07/12 11:48:56;;;;;;;1.17;1.07;;;;;;;;;;4994885;28;20459;-54
2022/07/12 11:51:27;;;;;;;1.10;1.00;;;;;;;;;;4994534;28;20473;-54
2022/07/12 11:53:53;;;;;;;1.13;0.77;;;;;;;;;;4994631;28;20485;-56
2022/07/12 11:56:29;;;;;;;1.67;0.90;;;;;;;;;;4994651;28;20444;-54
2022/07/12 11:58:58;;;;;;;1.83;1.07;;;;;;;;;;4994558;28;20489;-54
2022/07/12 12:01:25;;;;;;;3.73;1.03;;;;;;;;;;4994216;28;20475;-54
2022/07/12 12:03:52;;;;;;;0.80;0.70;;;;;;;;;;4994575;28;20415;-54
2022/07/12 12:06:18;;;;;;;0.83;0.80;;;;;;;;;;4994356;28;20404;-55
2022/07/12 12:08:45;;;;;;;1.10;1.00;;;;;;;;;;4994282;28;20420;-56
2022/07/12 12:11:11;;;;;;;0.80;0.77;;;;;;;;;;4994056;28;20462;-54
2022/07/12 12:13:38;;;;;;;1.20;1.00;;;;;;;;;;4994270;28;20416;-55
2022/07/12 12:16:05;;;;;;;0.83;0.80;;;;;;;;;;4994307;28;20404;-55
2022/07/12 12:18:38;;;;;;;1.07;0.97;;;;;;;;;;4994163;28;20455;-56
2022/07/12 12:21:05;;;;;;;2.80;1.10;;;;;;;;;;4993976;28;20851;-53
2022/07/12 12:23:33;;;;;;;1.33;1.13;;;;;;;;;;4994033;28;20838;-56
2022/07/12 12:26:15;;;;;;;1.10;0.80;;;;;;;;;;4994131;28;20427;-53
2022/07/12 12:28:42;;;;;;;1.87;1.00;;;;;;;;;;4994020;28;20444;-53
2022/07/12 12:31:09;;;;;;;1.00;0.90;;;;;;;;;;4993768;28;20397;-55
2022/07/12 12:33:35;;;;;;;1.20;1.10;;;;;;;;;;4993968;28;20415;-54
2022/07/12 12:36:14;;;;;;;1.20;1.10;;;;;;;;;;4993866;28;20454;-54
2022/07/12 12:38:42;;;;;;;1.80;1.20;;;;;;;;;;4993622;28;20454;-55
2022/07/12 12:41:08;;;;;;;1.40;1.20;;;;;;;;;;4993522;28;20943;-54
2022/07/12 12:43:34;;;;;;;1.17;1.07;;;;;;;;;;4993916;28;20422;-54
2022/07/12 12:46:00;;;;;;;1.23;1.10;;;;;;;;;;4994293;28;20522;-55
2022/07/12 12:48:29;;;;;;;1.10;0.87;;;;;;;;;;5008121;28;20961;-57
2022/07/12 12:51:07;;;;;;;1.53;1.20;;;;;;;;;;5012828;28;20892;-57
2022/07/12 12:53:33;;;;;;;1.10;0.90;;;;;;;;;;5011893;28;20431;-57
2022/07/12 12:56:00;;;;;;;0.80;0.70;;;;;;;;;;5012778;28;20398;-57
2022/07/12 12:58:26;;;;;;;1.20;0.90;;;;;;;;;;5011301;28;20796;-57
2022/07/12 13:00:53;;;;;;;1.00;0.90;;;;;;;;;;5013152;28;20403;-57
2022/07/12 13:03:20;;;;;;;0.80;0.73;;;;;;;;;;5012807;28;20765;-58
2022/07/12 13:05:47;;;;;;;1.00;0.90;;;;;;;;;;5012974;28;20426;-57
2022/07/12 13:08:14;;;;;;;1.27;0.80;;;;;;;;;;5012337;28;20465;-57
2022/07/12 13:10:40;;;;;;;1.10;0.70;;;;;;;;;;5012516;28;20903;-58
2022/07/12 13:13:08;;;;;;;1.00;0.90;;;;;;;;;;5012875;28;20462;-57
2022/07/12 13:15:36;;;;;;;0.80;0.80;;;;;;;;;;5012630;28;20411;-57
2022/07/12 13:18:03;;;;;;;0.90;0.90;;;;;;;;;;5012207;28;20427;-57
2022/07/12 13:20:29;;;;;;;1.30;0.97;;;;;;;;;;5013267;28;20407;-57
2022/07/12 13:22:55;;;;;;;1.20;1.10;;;;;;;;;;5012596;28;20439;-58
2022/07/12 13:25:21;;;;;;;1.00;0.80;;;;;;;;;;5012614;28;20404;-57
2022/07/12 13:27:47;;;;;;;0.80;0.70;;;;;;;;;;5010245;28;20498;-57
2022/07/12 13:30:15;;;;;;;1.17;1.07;;;;;;;;;;5012106;28;20404;-57
2022/07/12 13:32:42;;;;;;;0.80;0.70;;;;;;;;;;5012456;28;20812;-57
2022/07/12 13:35:09;;;;;;;1.00;0.90;;;;;;;;;;5012447;28;20486;-57
2022/07/12 13:37:35;;;;;;;2.43;1.00;;;;;;;;;;5012185;28;20457;-57
2022/07/12 13:40:14;;;;;;;1.03;0.93;;;;;;;;;;5012309;28;20529;-56
2022/07/12 13:42:48;;;;;;;0.97;0.87;;;;;;;;;;5012272;28;20828;-57
2022/07/12 13:45:18;;;;;;;1.40;1.00;;;;;;;;;;5012304;28;20410;-56
2022/07/12 13:47:45;;;;;;;0.93;0.83;;;;;;;;;;5012250;28;20901;-57
2022/07/12 13:50:12;;;;;;;1.50;0.80;;;;;;;;;;5012000;28;20403;-57
2022/07/12 13:52:40;;;;;;;2.10;1.20;;;;;;;;;;5011720;28;20395;-57
2022/07/12 13:55:06;;;;;;;1.23;1.00;;;;;;;;;;5011955;28;20397;-57
2022/07/12 13:57:34;;;;;;;1.50;1.00;;;;;;;;;;5012063;28;20484;-57
2022/07/12 14:00:01;;;;;;;1.00;0.90;;;;;;;;;;5012187;28;20411;-57
2022/07/12 14:02:27;;;;;;;1.50;1.40;;;;;;;;;;5011938;28;20412;-57
2022/07/12 14:04:53;;;;;;;1.00;1.00;;;;;;;;;;5012099;28;20415;-56
2022/07/12 14:07:20;;;;;;;1.10;1.00;;;;;;;;;;5009421;28;20986;-56
2022/07/12 14:09:46;;;;;;;0.80;0.80;;;;;;;;;;5008190;28;20414;-56
2022/07/12 14:12:11;;;;;;;1.00;0.87;;;;;;;;;;5011642;28;20399;-57
2022/07/12 14:17:23;;;;;;;1.20;1.00;;;;;;;;;;5011874;28;21061;-57
2022/07/12 14:19:49;;;;;;;0.90;0.80;;;;;;;;;;5011755;28;20761;-57
2022/07/12 14:22:15;;;;;;;1.03;0.80;;;;;;;;;;5011461;28;20407;-57
2022/07/12 14:24:42;;;;;;;2.07;1.07;;;;;;;;;;5011824;28;20904;-57
2022/07/12 14:27:08;;;;;;;1.20;0.90;;;;;;;;;;5011880;28;20459;-56
2022/07/12 14:29:34;;;;;;;1.30;0.80;;;;;;;;;;5011700;28;20764;-57
2022/07/12 14:32:01;;;;;;;1.30;1.20;;;;;;;;;;5011528;28;20395;-57
2022/07/12 14:34:27;;;;;;;1.00;1.00;;;;;;;;;;5011758;28;20169;-57
2022/07/12 14:36:53;;;;;;;1.10;1.00;;;;;;;;;;5011513;28;20465;-57
2022/07/12 14:39:20;;;;;;;2.97;0.90;;;;;;;;;;5011537;28;20426;-57
2022/07/12 14:41:46;;;;;;;1.40;1.30;;;;;;;;;;5011378;28;20501;-57
2022/07/12 14:44:12;;;;;;;1.30;1.10;;;;;;;;;;5011688;28;20887;-57
2022/07/12 14:46:38;;;;;;;1.20;1.10;;;;;;;;;;5011554;28;20812;-56
2022/07/12 14:49:05;;;;;;;1.40;1.30;;;;;;;;;;5011390;28;20417;-57
2022/07/12 14:51:31;;;;;;;1.57;1.10;;;;;;;;;;5011021;28;20407;-57
2022/07/12 14:53:57;;;;;;;1.30;1.20;;;;;;;;;;5011610;28;20414;-56